EST,Max TemperatureF,Mean TemperatureF,Min TemperatureF,Max Dew PointF,MeanDew PointF,Min DewpointF,Max Humidity, Mean Humidity, Min Humidity, Max Sea Level PressureIn, Mean Sea Level PressureIn, Min Sea Level PressureIn, Max VisibilityMiles, Mean VisibilityMiles, Min VisibilityMiles, Max Wind SpeedMPH, Mean Wind SpeedMPH, Max Gust SpeedMPH,PrecipitationIn, CloudCover, Events, WindDirDegrees
2013-1-1,41,36,28,28,22,14,63,55,44,29.99,29.89,29.83,10,10,10,15,12,26,0.00,4,,295
2013-1-2,32,28,23,17,13,10,63,54,45,30.16,30.06,29.98,10,10,10,16,8,23,0.00,1,,299
2013-1-3,30,26,23,17,15,12,69,60,46,30.20,30.13,30.07,10,10,10,13,7,,0.00,1,,295
2013-1-4,39,32,26,22,20,16,69,59,46,30.08,30.01,29.94,10,10,10,15,8,23,0.00,2,,255
2013-1-5,44,35,26,23,20,18,78,55,42,30.27,30.17,29.99,10,10,7,15,8,23,0.00,0,,282
2013-1-6,44,37,30,34,30,24,96,79,63,30.24,30.09,29.98,10,8,2,13,5,,0.00,4,Snow,239
2013-1-7,46,36,24,31,24,17,81,63,40,30.41,30.27,30.05,10,10,8,13,6,20,0.00,0,,320
2013-1-8,48,38,28,37,32,22,92,72,48,30.45,30.39,30.35,10,10,7,16,6,24,0.00,0,,229
2013-1-9,48,37,26,41,32,25,96,78,58,30.40,30.29,30.14,10,7,2,13,4,22,0.00,2,Rain,228
2013-1-10,48,39,30,32,24,21,69,50,36,30.55,30.44,30.22,10,10,10,22,10,28,0.00,0,,315
2013-1-11,48,38,28,46,37,23,100,82,65,30.53,30.32,30.12,10,8,2,10,3,,0.39,5,Rain,132
2013-1-12,50,47,44,48,44,42,100,94,93,30.18,30.13,30.07,8,2,0,7,5,,0.14,8,Fog-Rain,7
2013-1-13,48,44,41,48,44,39,100,95,83,30.17,30.10,30.04,10,3,0,9,4,,0.02,8,Fog,192
2013-1-14,59,50,37,54,46,29,100,88,50,30.28,30.08,29.98,10,5,0,14,6,17,0.03,7,Fog-Rain,266
2013-1-15,39,37,35,33,30,27,89,74,62,30.33,30.28,30.22,10,10,9,12,6,,0.17,8,Rain,358
2013-1-16,39,37,35,37,35,31,97,93,85,30.22,29.97,29.80,10,6,2,14,4,23,0.87,7,Rain,302
2013-1-17,44,38,33,35,29,22,93,71,49,30.09,30.02,29.92,10,10,4,13,5,20,0.01,3,Snow,302
2013-1-18,33,26,19,21,9,4,71,50,35,30.51,30.36,30.03,10,10,9,18,10,26,0.00,3,,336
2013-1-19,46,38,30,36,29,19,71,60,47,30.41,30.20,29.96,10,10,10,18,13,37,0.00,0,,215
2013-1-20,55,44,32,35,25,11,68,48,21,30.03,29.83,29.68,10,10,10,22,14,32,0.00,0,,250
2013-1-21,32,28,24,27,21,7,93,74,40,30.12,29.95,29.82,10,5,0,13,7,17,0.07,7,Fog-Snow,274
2013-1-22,25,20,14,19,3,-6,78,48,36,30.17,30.01,29.82,10,10,8,18,12,31,0.00,3,,297
2013-1-23,19,14,10,-1,-3,-6,58,45,39,30.23,30.19,30.16,10,10,10,18,11,30,0.00,3,,296
2013-1-24,21,12,3,5,-1,-6,70,51,36,30.36,30.23,30.14,10,10,10,21,7,30,0.00,0,,318
2013-1-25,25,18,10,18,9,0,93,67,38,30.41,30.22,30.07,10,7,2,9,4,,0.03,5,Snow,300
2013-1-26,26,20,14,16,9,2,86,63,42,30.35,30.14,30.04,10,10,10,17,9,24,0.00,3,,325
2013-1-27,32,21,10,13,7,2,81,55,34,30.51,30.46,30.36,10,10,10,20,7,28,0.00,0,,297
2013-1-28,37,28,18,34,26,9,93,82,52,30.49,30.22,30.02,10,7,3,10,3,,0.14,7,Rain-Snow,222
2013-1-29,44,38,33,41,35,30,96,89,73,30.18,30.11,30.01,10,6,2,13,3,,0.03,8,Rain,155
2013-1-30,57,50,45,53,49,42,100,94,87,30.09,29.82,29.47,10,5,0,28,11,36,0.00,8,Fog,182
2013-1-31,57,44,30,55,37,11,94,68,32,29.76,29.35,29.11,10,8,2,37,23,53,0.45,5,Rain,230